Nickelena — WDER746 — position and weather

sailwx.info

Track history (hours):
 
Tides and Currents Weather Stations Pressure Air Temp Water Temp Dewpoint Dewpoint Depression Visibility Wind Speed Wind Dir Waves Ship Positions

Nickelena

Last reported at 2014-Oct-26 06:23 UTC. Time now 2014-Oct-26 07:09 UTC.
Position N 45°41' W 084°17'.

Length 33 m.

Type: Tug. MMSI: 367393840.

Date/timePositionNaut miles runAvg speedWind from/ knotsBaromVisibWave heightAir tempDewpointWater temp
2014-Oct-26 06:23N 45°41' W 084°17'8 9.4
2014-Oct-26 05:33N 45°42' W 084°28'9 9.2
2014-Oct-26 04:33N 45°47' W 084°39'9 9.2
2014-Oct-26 03:33N 45°49' W 084°52'9 8.9
2014-Oct-26 02:33N 45°51' W 085°05'9 9.0
2014-Oct-26 01:33N 45°52' W 085°18'9 9.1
2014-Oct-26 00:33N 45°53' W 085°30'9 8.9
2014-Oct-25 23:33N 45°50' W 085°43'9 8.8
2014-Oct-25 22:33N 45°46' W 085°54'9 8.7
2014-Oct-25 21:33N 45°43' W 086°05'9 8.6
2014-Oct-25 20:33N 45°39' W 086°16'9 8.7
2014-Oct-25 19:33N 45°35' W 086°28'  
Track history (hours):
 
Tides and Currents Weather Stations Pressure Air Temp Water Temp Dewpoint Dewpoint Depression Visibility Wind Speed Wind Dir Waves Ship Positions

Nickelena

Last reported at 2014-Oct-26 06:23 UTC. Time now 2014-Oct-26 07:09 UTC.
Position N 45°41' W 084°17'.

Length 33 m.

Type: Tug. MMSI: 367393840.

Date/timePositionNaut miles runAvg speedWind from/ knotsBaromVisibWave heightAir tempDewpointWater temp
2014-Oct-26 06:23N 45°41' W 084°17'8 9.4
2014-Oct-26 05:33N 45°42' W 084°28'9 9.2
2014-Oct-26 04:33N 45°47' W 084°39'9 9.2
2014-Oct-26 03:33N 45°49' W 084°52'9 8.9
2014-Oct-26 02:33N 45°51' W 085°05'9 9.0
2014-Oct-26 01:33N 45°52' W 085°18'9 9.1
2014-Oct-26 00:33N 45°53' W 085°30'9 8.9
2014-Oct-25 23:33N 45°50' W 085°43'9 8.8
2014-Oct-25 22:33N 45°46' W 085°54'9 8.7
2014-Oct-25 21:33N 45°43' W 086°05'9 8.6
2014-Oct-25 20:33N 45°39' W 086°16'9 8.7
2014-Oct-25 19:33N 45°35' W 086°28'  

Dump ship's entire track history